createdAt,value
2018-09-24T00:00:29.161Z,88.01
2018-09-24T00:03:01.379Z,88.73
2018-09-24T00:05:33.749Z,88.40
2018-09-24T00:08:06.067Z,88.57
2018-09-24T00:10:38.338Z,86.96
2018-09-24T00:13:10.629Z,87.95
2018-09-24T00:15:42.921Z,87.61
2018-09-24T00:18:15.132Z,87.83
2018-09-24T00:20:47.388Z,87.89
2018-09-24T00:23:19.658Z,87.59
2018-09-24T00:25:51.925Z,88.24
2018-09-24T00:28:24.128Z,87.19
2018-09-24T00:30:56.376Z,87.67
2018-09-24T00:33:28.632Z,87.77
2018-09-24T00:36:00.882Z,86.29
2018-09-24T00:38:33.129Z,86.41
2018-09-24T00:41:05.414Z,87.10
2018-09-24T00:43:37.678Z,86.32
2018-09-24T00:46:09.952Z,85.84
2018-09-24T00:48:42.187Z,85.74
2018-09-24T00:51:14.517Z,85.85
2018-09-24T00:53:46.777Z,86.44
2018-09-24T00:56:19.152Z,85.46
2018-09-24T00:58:51.384Z,85.68
2018-09-24T01:01:23.860Z,86.37
2018-09-24T01:03:56.096Z,86.44
2018-09-24T01:06:28.398Z,87.54
2018-09-24T01:09:00.803Z,86.85
2018-09-24T01:11:33.061Z,87.38
2018-09-24T01:14:12.101Z,87.60
2018-09-24T01:16:44.324Z,87.16
2018-09-24T01:19:16.623Z,86.73
2018-09-24T01:21:48.868Z,85.98
2018-09-24T01:24:21.093Z,85.86
2018-09-24T01:26:53.345Z,86.32
2018-09-24T01:29:25.595Z,86.31
2018-09-24T01:31:57.960Z,85.43
2018-09-24T01:34:30.246Z,85.37
2018-09-24T01:37:02.486Z,86.30
2018-09-24T01:39:34.751Z,85.91
2018-09-24T01:42:07.012Z,86.02
2018-09-24T01:44:39.349Z,85.57
2018-09-24T01:47:11.592Z,85.19
2018-09-24T01:49:43.817Z,84.74
2018-09-24T01:52:16.157Z,85.10
2018-09-24T01:54:48.400Z,85.24
2018-09-24T01:57:20.729Z,84.72
2018-09-24T01:59:56.349Z,84.96
2018-09-24T02:02:28.577Z,85.94
2018-09-24T02:05:00.869Z,85.27
2018-09-24T02:07:33.115Z,84.96
2018-09-24T02:10:05.419Z,85.06
2018-09-24T02:12:37.682Z,85.89
2018-09-24T02:15:09.965Z,84.22
2018-09-24T02:17:42.243Z,82.44
2018-09-24T02:20:14.541Z,83.68
2018-09-24T02:22:46.767Z,84.25
2018-09-24T02:25:19.037Z,83.80
2018-09-24T02:27:51.359Z,84.75
2018-09-24T02:30:23.584Z,84.73
2018-09-24T02:32:55.881Z,83.30
2018-09-24T02:35:28.184Z,83.79
2018-09-24T02:38:00.437Z,82.93
2018-09-24T02:40:32.705Z,83.77
2018-09-24T02:43:04.972Z,83.85
2018-09-24T02:45:37.256Z,82.61
2018-09-24T02:48:09.553Z,83.73
2018-09-24T02:50:41.800Z,83.71
2018-09-24T02:53:14.041Z,82.38
2018-09-24T02:55:46.300Z,83.62
2018-09-24T02:58:19.668Z,83.57
2018-09-24T03:00:51.941Z,83.52
2018-09-24T03:03:24.191Z,83.98
2018-09-24T03:05:56.693Z,83.77
2018-09-24T03:08:28.964Z,83.81
2018-09-24T03:11:03.304Z,83.96
2018-09-24T03:13:35.676Z,83.33
2018-09-24T03:16:07.946Z,83.95
2018-09-24T03:18:40.281Z,83.67
2018-09-24T03:21:12.553Z,83.28
2018-09-24T03:23:44.933Z,83.08
2018-09-24T03:26:17.224Z,83.32
2018-09-24T03:28:49.694Z,83.01
2018-09-24T03:31:21.910Z,82.25
2018-09-24T03:33:54.157Z,82.60
2018-09-24T03:36:26.412Z,82.85
2018-09-24T03:38:58.700Z,82.46
2018-09-24T03:41:30.944Z,82.03
2018-09-24T03:44:03.225Z,82.03
2018-09-24T03:46:35.449Z,82.27
2018-09-24T03:49:08.189Z,82.14
2018-09-24T03:51:40.401Z,81.84
2018-09-24T03:54:12.673Z,81.61
2018-09-24T03:56:44.899Z,81.84
2018-09-24T03:59:17.220Z,81.50
2018-09-24T04:01:49.438Z,81.63
2018-09-24T04:04:27.205Z,81.89
2018-09-24T04:07:05.446Z,81.53
2018-09-24T04:09:43.533Z,81.82
2018-09-24T04:12:21.424Z,81.79
2018-09-24T04:14:59.421Z,81.71
2018-09-24T04:17:37.236Z,80.35
2018-09-24T04:20:15.112Z,81.92
2018-09-24T04:22:53.020Z,82.32
2018-09-24T04:25:30.928Z,81.07
2018-09-24T04:28:08.777Z,81.20
2018-09-24T04:30:46.665Z,82.04
2018-09-24T04:33:24.644Z,81.50
2018-09-24T04:36:02.668Z,81.71
2018-09-24T04:38:40.581Z,81.53
2018-09-24T04:41:18.338Z,80.98
2018-09-24T04:43:56.244Z,81.34
2018-09-24T04:46:34.149Z,82.15
2018-09-24T04:49:12.170Z,82.36
2018-09-24T04:51:50.168Z,82.04
2018-09-24T04:54:28.062Z,81.11
2018-09-24T04:57:06.074Z,81.75
2018-09-24T04:59:44.181Z,81.59
2018-09-24T05:02:22.212Z,81.37
2018-09-24T05:05:00.087Z,81.91
2018-09-24T05:07:38.015Z,82.42
2018-09-24T05:10:15.819Z,81.73
2018-09-24T05:12:53.697Z,81.55
2018-09-24T05:15:31.445Z,82.24
2018-09-24T05:18:09.434Z,81.87
2018-09-24T05:20:47.172Z,81.99
2018-09-24T05:23:25.134Z,82.66
2018-09-24T05:26:03.095Z,82.24
2018-09-24T05:28:41.070Z,82.22
2018-09-24T05:31:19.041Z,81.69
2018-09-24T05:33:56.945Z,82.13
2018-09-24T05:36:34.729Z,82.08
2018-09-24T05:39:13.824Z,81.65
2018-09-24T05:41:51.669Z,82.27
2018-09-24T05:44:29.548Z,81.68
2018-09-24T05:47:07.472Z,81.92
2018-09-24T05:49:45.324Z,80.27
2018-09-24T05:52:23.320Z,81.54
2018-09-24T05:55:01.145Z,81.46
2018-09-24T05:57:39.091Z,81.22
2018-09-24T06:00:17.073Z,80.94
2018-09-24T06:02:54.883Z,80.31
2018-09-24T06:05:32.876Z,80.63
2018-09-24T06:08:10.884Z,80.84
2018-09-24T06:10:48.894Z,79.53
2018-09-24T06:13:26.898Z,79.01
2018-09-24T06:16:04.789Z,79.08
2018-09-24T06:18:42.821Z,77.27
2018-09-24T06:21:20.729Z,75.77
2018-09-24T06:23:58.621Z,74.32
2018-09-24T06:26:36.632Z,71.07
2018-09-24T06:29:14.520Z,69.87
2018-09-24T06:31:52.501Z,69.32
2018-09-24T06:34:30.544Z,67.04
2018-09-24T06:37:08.524Z,65.25
2018-09-24T06:39:46.545Z,64.85
2018-09-24T06:42:24.434Z,62.89
2018-09-24T06:45:02.349Z,61.99
2018-09-24T06:47:40.316Z,63.89
2018-09-24T06:50:18.371Z,64.31
2018-09-24T06:52:56.376Z,64.33
2018-09-24T06:55:34.220Z,66.16
2018-09-24T06:58:12.281Z,66.46
2018-09-24T07:00:50.239Z,66.34
2018-09-24T07:03:28.241Z,66.92
2018-09-24T07:06:06.213Z,67.44
2018-09-24T07:08:44.090Z,67.85
2018-09-24T07:11:22.157Z,67.90
2018-09-24T07:14:00.145Z,68.27
2018-09-24T07:16:38.078Z,67.10
2018-09-24T07:19:16.038Z,65.21
2018-09-24T07:21:54.098Z,64.71
2018-09-24T07:24:31.984Z,64.27
2018-09-24T07:27:09.986Z,62.39
2018-09-24T07:29:48.002Z,63.19
2018-09-24T07:32:25.936Z,62.52
2018-09-24T07:35:03.818Z,61.71
2018-09-24T07:37:41.869Z,60.88
2018-09-24T07:40:19.830Z,59.81
2018-09-24T07:42:57.911Z,59.82
2018-09-24T07:45:35.883Z,59.49
2018-09-24T07:48:13.777Z,59.25
2018-09-24T07:50:51.726Z,58.24
2018-09-24T07:53:29.700Z,56.85
2018-09-24T07:56:07.667Z,56.46
2018-09-24T07:58:45.586Z,56.96
2018-09-24T08:01:23.614Z,55.91
2018-09-24T08:04:01.596Z,56.40
2018-09-24T08:06:39.617Z,57.63
2018-09-24T08:09:17.541Z,57.97
2018-09-24T08:11:55.428Z,57.66
2018-09-24T08:14:33.489Z,56.79
2018-09-24T08:17:11.453Z,54.31
2018-09-24T08:19:49.429Z,54.95
2018-09-24T08:22:27.413Z,54.05
2018-09-24T08:25:05.375Z,53.49
2018-09-24T08:27:43.286Z,53.79
2018-09-24T08:30:21.331Z,53.46
2018-09-24T08:32:59.286Z,55.05
2018-09-24T08:35:37.257Z,54.62
2018-09-24T08:38:15.301Z,53.36
2018-09-24T08:40:53.107Z,53.53
2018-09-24T08:43:31.106Z,52.43
2018-09-24T08:46:09.148Z,52.85
2018-09-24T08:48:47.073Z,52.89
2018-09-24T08:51:25.053Z,51.92
2018-09-24T08:54:03.103Z,52.24
2018-09-24T08:56:41.170Z,52.51
2018-09-24T08:59:19.027Z,53.00
2018-09-24T09:01:56.882Z,51.01
2018-09-24T09:04:34.677Z,50.61
2018-09-24T09:07:12.653Z,50.58
2018-09-24T09:09:50.481Z,50.96
2018-09-24T09:12:28.564Z,52.14
2018-09-24T09:15:06.520Z,48.53
2018-09-24T09:17:44.489Z,48.90
2018-09-24T09:20:22.391Z,49.90
2018-09-24T09:23:00.275Z,49.42
2018-09-24T09:25:38.269Z,50.12
2018-09-24T09:28:16.106Z,49.52
2018-09-24T09:30:54.181Z,50.51
2018-09-24T09:33:32.010Z,49.76
2018-09-24T09:36:10.104Z,48.22
2018-09-24T09:38:47.990Z,47.67
2018-09-24T09:41:25.884Z,47.54
2018-09-24T09:44:03.945Z,47.59
2018-09-24T09:46:41.763Z,46.50
2018-09-24T09:49:19.808Z,47.01
2018-09-24T09:51:57.737Z,46.45
2018-09-24T09:54:35.725Z,47.45
2018-09-24T09:57:13.668Z,47.08
2018-09-24T09:59:51.499Z,47.16
2018-09-24T10:02:29.374Z,46.53
2018-09-24T10:05:07.433Z,47.66
2018-09-24T10:07:45.440Z,47.21
2018-09-24T10:10:23.367Z,46.95
2018-09-24T10:13:01.359Z,48.40
2018-09-24T10:15:39.364Z,48.09
2018-09-24T10:18:17.312Z,47.63
2018-09-24T10:20:55.178Z,45.77
2018-09-24T10:23:33.142Z,46.84
2018-09-24T10:26:11.151Z,46.69
2018-09-24T10:28:49.175Z,46.98
2018-09-24T10:31:27.144Z,45.94
2018-09-24T10:34:04.945Z,45.63
2018-09-24T10:36:42.902Z,46.40
2018-09-24T10:39:20.784Z,45.30
2018-09-24T10:41:58.588Z,45.11
2018-09-24T10:44:36.613Z,46.11
2018-09-24T10:47:14.580Z,46.40
2018-09-24T10:49:52.523Z,45.83
2018-09-24T10:52:30.451Z,45.80
2018-09-24T10:55:08.442Z,43.88
2018-09-24T10:57:46.305Z,44.24
2018-09-24T11:00:24.244Z,44.36
2018-09-24T11:03:02.152Z,43.88
2018-09-24T11:05:40.089Z,44.90
2018-09-24T11:08:18.084Z,43.88
2018-09-24T11:10:56.115Z,43.59
2018-09-24T11:13:34.083Z,42.63
2018-09-24T11:16:12.152Z,40.64
2018-09-24T11:18:49.905Z,41.06
2018-09-24T11:21:27.861Z,41.81
2018-09-24T11:24:05.969Z,41.20
2018-09-24T11:26:43.975Z,42.24
2018-09-24T11:29:22.034Z,42.69
2018-09-24T11:32:00.079Z,42.93
2018-09-24T11:34:38.039Z,40.05
2018-09-24T11:37:16.072Z,39.93
2018-09-24T11:39:54.007Z,38.62
2018-09-24T11:42:31.990Z,39.69
2018-09-24T11:45:09.995Z,40.52
2018-09-24T11:47:47.964Z,42.61
2018-09-24T11:50:25.901Z,41.16
2018-09-24T11:53:03.924Z,40.88
2018-09-24T11:55:41.872Z,39.63
2018-09-24T11:58:19.939Z,40.13
2018-09-24T12:00:57.921Z,41.31
2018-09-24T12:03:35.861Z,41.74
2018-09-24T12:06:13.821Z,42.86
2018-09-24T12:08:51.764Z,44.31
2018-09-24T12:11:29.726Z,43.25
2018-09-24T12:14:07.638Z,42.32
2018-09-24T12:16:45.477Z,43.67
2018-09-24T12:19:23.437Z,43.38
2018-09-24T12:22:01.508Z,39.70
2018-09-24T12:24:39.345Z,41.09
2018-09-24T12:27:17.414Z,40.51
2018-09-24T12:29:55.332Z,41.68
2018-09-24T12:32:33.337Z,41.42
2018-09-24T12:35:11.348Z,43.53
2018-09-24T12:37:49.266Z,43.74
2018-09-24T12:40:27.174Z,45.22
2018-09-24T12:43:05.207Z,45.77
2018-09-24T12:45:43.106Z,46.53
2018-09-24T12:48:21.153Z,45.55
2018-09-24T12:50:59.028Z,44.45
2018-09-24T12:53:36.960Z,43.03
2018-09-24T12:56:14.913Z,42.24
2018-09-24T12:58:52.844Z,41.92
2018-09-24T13:01:30.894Z,42.40
2018-09-24T13:04:08.763Z,41.61
2018-09-24T13:06:46.751Z,40.62
2018-09-24T13:09:24.839Z,40.74
2018-09-24T13:12:02.700Z,41.59
2018-09-24T13:14:40.603Z,39.95
2018-09-24T13:17:18.445Z,40.99
2018-09-24T13:19:56.508Z,40.21
2018-09-24T13:22:34.509Z,36.94
2018-09-24T13:25:12.548Z,37.07
2018-09-24T13:27:50.522Z,37.81
2018-09-24T13:30:28.405Z,38.13
2018-09-24T13:33:06.405Z,39.05
2018-09-24T13:35:44.327Z,38.96
2018-09-24T13:38:22.289Z,36.89
2018-09-24T13:41:00.385Z,37.43
2018-09-24T13:43:38.416Z,37.06
2018-09-24T13:46:16.257Z,38.51
2018-09-24T13:48:54.213Z,37.88
2018-09-24T13:51:32.078Z,38.35
2018-09-24T13:54:10.099Z,38.01
2018-09-24T13:56:48.093Z,38.73
2018-09-24T13:59:25.933Z,37.91
2018-09-24T14:02:03.906Z,38.58
2018-09-24T14:04:41.874Z,39.45
2018-09-24T14:07:19.813Z,40.44
2018-09-24T14:09:57.785Z,41.04
2018-09-24T14:12:35.684Z,40.94
2018-09-24T14:15:13.688Z,41.81
2018-09-24T14:17:51.764Z,42.18
2018-09-24T14:20:29.745Z,42.13
2018-09-24T14:23:07.605Z,41.57
2018-09-24T14:25:45.521Z,41.48
2018-09-24T14:28:23.480Z,41.19
2018-09-24T14:31:01.432Z,42.21
2018-09-24T14:33:39.214Z,41.93
2018-09-24T14:36:17.138Z,41.79
2018-09-24T14:38:55.147Z,42.64
2018-09-24T14:41:33.099Z,41.73
2018-09-24T14:44:11.018Z,39.83
2018-09-24T14:46:48.991Z,41.00
2018-09-24T14:49:26.923Z,40.44
2018-09-24T14:52:04.924Z,42.27
2018-09-24T14:54:42.893Z,41.60
2018-09-24T14:57:20.761Z,41.22
2018-09-24T14:59:58.630Z,42.59
2018-09-24T15:02:36.665Z,43.29
2018-09-24T15:05:14.673Z,42.92
2018-09-24T15:07:52.534Z,42.45
2018-09-24T15:10:30.483Z,42.25
2018-09-24T15:13:08.477Z,43.89
2018-09-24T15:15:46.526Z,43.81
2018-09-24T15:18:24.557Z,44.19
2018-09-24T15:21:02.513Z,43.98
2018-09-24T15:23:40.417Z,45.18
2018-09-24T15:26:18.437Z,46.00
2018-09-24T15:28:56.367Z,45.77
2018-09-24T15:31:34.197Z,46.49
2018-09-24T15:34:12.339Z,46.26
2018-09-24T15:36:50.306Z,46.16
2018-09-24T15:39:28.332Z,46.37
2018-09-24T15:42:06.743Z,46.02
2018-09-24T15:44:44.726Z,45.44
2018-09-24T15:47:22.696Z,46.31
2018-09-24T15:50:00.791Z,47.19
2018-09-24T15:52:38.761Z,46.87
2018-09-24T15:55:16.730Z,46.66
2018-09-24T15:57:54.701Z,47.65
2018-09-24T16:00:32.733Z,46.74
2018-09-24T16:03:10.786Z,46.08
2018-09-24T16:05:48.745Z,45.51
2018-09-24T16:08:26.798Z,46.35
2018-09-24T16:11:04.821Z,46.67
2018-09-24T16:13:42.805Z,46.06
2018-09-24T16:16:20.817Z,46.60
2018-09-24T16:18:58.673Z,46.60
2018-09-24T16:21:36.661Z,47.26
2018-09-24T16:24:14.638Z,46.74
2018-09-24T16:26:52.638Z,47.40
2018-09-24T16:29:30.624Z,48.79
2018-09-24T16:32:08.580Z,49.83
2018-09-24T16:34:46.523Z,50.46
2018-09-24T16:37:24.542Z,50.80
2018-09-24T16:40:02.433Z,50.73
2018-09-24T16:42:40.461Z,51.43
2018-09-24T16:45:18.481Z,51.76
2018-09-24T16:47:56.370Z,51.84
2018-09-24T16:50:34.388Z,52.98
2018-09-24T16:53:12.382Z,53.51
2018-09-24T16:55:50.273Z,53.18
2018-09-24T16:58:28.281Z,54.84
2018-09-24T17:01:13.267Z,54.93
2018-09-24T17:03:51.295Z,54.30
2018-09-24T17:06:29.340Z,54.81
2018-09-24T17:09:07.253Z,55.03
2018-09-24T17:11:45.287Z,55.93
2018-09-24T17:14:23.140Z,57.29
2018-09-24T17:17:01.101Z,58.33
2018-09-24T17:19:39.095Z,58.15
2018-09-24T17:22:17.109Z,58.50
2018-09-24T17:24:54.961Z,58.52
2018-09-24T17:27:32.966Z,59.19
2018-09-24T17:30:10.960Z,60.49
2018-09-24T17:32:48.885Z,60.58
2018-09-24T17:35:26.936Z,60.95
2018-09-24T17:38:04.887Z,61.21
2018-09-24T17:40:42.928Z,60.77
2018-09-24T17:43:20.899Z,59.82
2018-09-24T17:45:58.963Z,60.61
2018-09-24T17:48:36.984Z,61.10
2018-09-24T17:51:15.605Z,61.11
2018-09-24T17:53:53.465Z,61.57
2018-09-24T17:56:31.504Z,61.84
2018-09-24T17:59:09.636Z,62.35
2018-09-24T18:01:47.969Z,62.40
2018-09-24T18:04:25.940Z,62.90
2018-09-24T18:07:03.798Z,63.21
2018-09-24T18:09:41.802Z,62.99
2018-09-24T18:12:19.743Z,62.84
2018-09-24T18:14:57.741Z,63.07
2018-09-24T18:17:35.635Z,63.60
2018-09-24T18:20:13.657Z,64.17
2018-09-24T18:22:51.674Z,65.49
2018-09-24T18:25:29.771Z,65.25
2018-09-24T18:28:07.825Z,65.23
2018-09-24T18:30:45.858Z,65.90
2018-09-24T18:33:23.963Z,66.37
2018-09-24T18:36:02.112Z,66.28
2018-09-24T18:38:40.033Z,66.47
2018-09-24T18:41:18.100Z,66.49
2018-09-24T18:43:55.875Z,67.12
2018-09-24T18:46:33.912Z,67.56
2018-09-24T18:49:11.866Z,67.58
2018-09-24T18:51:49.886Z,67.16
2018-09-24T18:54:27.780Z,67.10
2018-09-24T18:57:05.766Z,67.17
2018-09-24T18:59:43.744Z,67.53
2018-09-24T19:02:21.625Z,68.31
2018-09-24T19:04:59.639Z,68.37
2018-09-24T19:07:37.610Z,68.62
2018-09-24T19:10:15.571Z,68.27
2018-09-24T19:12:53.510Z,69.05
2018-09-24T19:15:31.410Z,68.78
2018-09-24T19:18:09.392Z,68.92
2018-09-24T19:20:47.425Z,68.51
2018-09-24T19:23:25.409Z,69.46
2018-09-24T19:26:03.423Z,69.21
2018-09-24T19:28:41.308Z,70.14
2018-09-24T19:31:19.322Z,69.88
2018-09-24T19:33:57.266Z,70.52
2018-09-24T19:36:35.224Z,70.33
2018-09-24T19:39:13.777Z,71.31
2018-09-24T19:41:51.732Z,70.76
2018-09-24T19:44:29.641Z,71.00
2018-09-24T19:47:07.584Z,70.83
2018-09-24T19:49:45.479Z,70.14
2018-09-24T19:52:23.486Z,71.49
2018-09-24T19:57:59.271Z,71.53
2018-09-24T20:00:56.872Z,70.93
2018-09-24T20:03:34.924Z,71.43
2018-09-24T20:06:12.795Z,71.01
2018-09-24T20:08:53.968Z,72.09
2018-09-24T20:11:32.007Z,72.33
2018-09-24T20:14:09.991Z,72.07
2018-09-24T20:16:47.900Z,71.46
2018-09-24T20:19:25.784Z,72.74
2018-09-24T20:22:03.734Z,72.08
2018-09-24T20:24:41.702Z,72.34
2018-09-24T20:27:19.716Z,72.66
2018-09-24T20:29:57.616Z,71.95
2018-09-24T20:32:35.671Z,72.23
2018-09-24T20:35:13.532Z,72.28
2018-09-24T20:37:51.542Z,72.71
2018-09-24T20:40:29.527Z,72.65
2018-09-24T20:43:07.425Z,72.85
2018-09-24T20:45:45.454Z,72.81
2018-09-24T20:48:23.483Z,73.98
2018-09-24T20:51:01.429Z,74.30
2018-09-24T20:53:39.585Z,73.70
2018-09-24T20:56:17.558Z,73.28
2018-09-24T20:58:55.543Z,73.30
2018-09-24T21:01:33.517Z,74.16
2018-09-24T21:04:12.430Z,74.14
2018-09-24T21:06:50.415Z,74.09
2018-09-24T21:09:28.313Z,73.71
2018-09-24T21:12:06.310Z,74.10
2018-09-24T21:14:44.198Z,73.67
2018-09-24T21:17:22.258Z,73.99
2018-09-24T21:20:00.127Z,73.90
2018-09-24T21:22:38.066Z,74.11
2018-09-24T21:25:16.084Z,74.21
2018-09-24T21:27:54.181Z,73.64
2018-09-24T21:30:32.034Z,74.03
2018-09-24T21:33:10.676Z,73.46
2018-09-24T21:35:48.910Z,73.44
2018-09-24T21:38:26.798Z,74.78
2018-09-24T21:41:04.799Z,74.16
2018-09-24T21:43:42.677Z,74.57
2018-09-24T21:46:20.690Z,74.45
2018-09-24T21:48:58.613Z,74.04
2018-09-24T21:51:36.466Z,74.56
2018-09-24T21:54:14.394Z,73.67
2018-09-24T21:56:52.264Z,73.97
2018-09-24T21:59:30.310Z,73.81
2018-09-24T22:02:08.293Z,73.44
2018-09-24T22:04:46.292Z,74.47
2018-09-24T22:07:24.216Z,73.78
2018-09-24T22:10:02.139Z,75.05
2018-09-24T22:12:40.255Z,74.86
2018-09-24T22:15:18.293Z,74.72
2018-09-24T22:17:56.229Z,75.46
2018-09-24T22:20:34.257Z,74.73
2018-09-24T22:23:12.194Z,75.24
2018-09-24T22:25:50.236Z,74.34
2018-09-24T22:28:28.038Z,75.70
2018-09-24T22:31:05.996Z,74.83
2018-09-24T22:33:43.778Z,74.52
2018-09-24T22:36:21.749Z,74.95
2018-09-24T22:38:59.685Z,74.83
2018-09-24T22:41:37.644Z,75.69
2018-09-24T22:44:15.569Z,75.29
2018-09-24T22:46:53.490Z,74.75
2018-09-24T22:49:31.456Z,75.35
2018-09-24T22:52:09.389Z,74.94
2018-09-24T22:54:47.260Z,75.69
2018-09-24T22:57:25.036Z,75.64
2018-09-24T23:00:03.048Z,75.80
2018-09-24T23:02:40.952Z,75.54
2018-09-24T23:05:18.789Z,75.07
2018-09-24T23:07:56.715Z,75.17
2018-09-24T23:10:34.662Z,75.57
2018-09-24T23:13:12.597Z,74.75
2018-09-24T23:15:50.581Z,75.33
2018-09-24T23:18:28.500Z,75.74
2018-09-24T23:21:06.458Z,74.98
2018-09-24T23:23:44.401Z,75.46
2018-09-24T23:26:22.403Z,75.31
2018-09-24T23:29:00.438Z,75.01
2018-09-24T23:31:39.080Z,75.68
2018-09-24T23:34:17.075Z,75.65
2018-09-24T23:36:55.044Z,75.58
2018-09-24T23:39:32.911Z,75.49
2018-09-24T23:42:10.833Z,75.41
2018-09-24T23:44:48.850Z,75.30
2018-09-24T23:47:26.783Z,75.50
2018-09-24T23:50:04.771Z,74.94
2018-09-24T23:52:42.765Z,75.45
2018-09-24T23:55:20.670Z,76.05
2018-09-24T23:57:58.604Z,75.44
